createdAt,value
2022-09-26T00:00:42.354Z,978.49
2022-09-26T00:01:42.403Z,978.49
2022-09-26T00:02:42.434Z,978.48
2022-09-26T00:03:42.320Z,978.48
2022-09-26T00:04:42.321Z,978.48
2022-09-26T00:05:42.335Z,978.49
2022-09-26T00:06:42.321Z,978.48
2022-09-26T00:07:42.288Z,978.46
2022-09-26T00:08:42.303Z,978.45
2022-09-26T00:09:42.277Z,978.43
2022-09-26T00:10:42.287Z,978.41
2022-09-26T00:11:42.252Z,978.39
2022-09-26T00:12:42.256Z,978.38
2022-09-26T00:13:42.256Z,978.37
2022-09-26T00:14:42.249Z,978.36
2022-09-26T00:15:42.226Z,978.35
2022-09-26T00:16:42.307Z,978.33
2022-09-26T00:17:42.235Z,978.32
2022-09-26T00:18:42.210Z,978.30
2022-09-26T00:19:42.245Z,978.29
2022-09-26T00:20:42.198Z,978.28
2022-09-26T00:21:42.188Z,978.28
2022-09-26T00:22:42.190Z,978.27
2022-09-26T00:23:42.176Z,978.25
2022-09-26T00:24:42.187Z,978.24
2022-09-26T00:25:42.199Z,978.23
2022-09-26T00:26:42.169Z,978.21
2022-09-26T00:27:42.150Z,978.21
2022-09-26T00:28:42.148Z,978.20
2022-09-26T00:29:42.138Z,978.20
2022-09-26T00:30:42.171Z,978.20
2022-09-26T00:31:42.147Z,978.20
2022-09-26T00:32:42.129Z,978.19
2022-09-26T00:33:42.112Z,978.20
2022-09-26T00:34:42.113Z,978.21
2022-09-26T00:35:42.106Z,978.21
2022-09-26T00:36:42.101Z,978.21
2022-09-26T00:37:42.185Z,978.21
2022-09-26T00:38:42.101Z,978.20
2022-09-26T00:39:42.079Z,978.19
2022-09-26T00:40:42.158Z,978.19
2022-09-26T00:41:42.069Z,978.18
2022-09-26T00:42:42.068Z,978.18
2022-09-26T00:43:42.074Z,978.17
2022-09-26T00:44:42.053Z,978.16
2022-09-26T00:45:42.092Z,978.15
2022-09-26T00:46:42.042Z,978.14
2022-09-26T00:47:42.028Z,978.13
2022-09-26T00:48:42.048Z,978.13
2022-09-26T00:49:42.014Z,978.12
2022-09-26T00:50:42.018Z,978.13
2022-09-26T00:51:41.994Z,978.13
2022-09-26T00:52:42.003Z,978.13
2022-09-26T00:53:41.988Z,978.12
2022-09-26T00:54:42.010Z,978.12
2022-09-26T00:55:41.970Z,978.11
2022-09-26T00:56:41.967Z,978.10
2022-09-26T00:57:41.954Z,978.08
2022-09-26T00:58:41.950Z,978.07
2022-09-26T00:59:41.970Z,978.05
2022-09-26T01:00:42.483Z,978.04
2022-09-26T01:01:42.120Z,978.01
2022-09-26T01:02:41.987Z,977.99
2022-09-26T01:03:41.944Z,977.97
2022-09-26T01:04:41.914Z,977.95
2022-09-26T01:05:41.899Z,977.94
2022-09-26T01:06:41.928Z,977.92
2022-09-26T01:07:41.923Z,977.92
2022-09-26T01:08:41.907Z,977.91
2022-09-26T01:09:41.893Z,977.90
2022-09-26T01:10:41.875Z,977.90
2022-09-26T01:11:41.883Z,977.88
2022-09-26T01:12:41.867Z,977.87
2022-09-26T01:13:41.851Z,977.86
2022-09-26T01:14:41.840Z,977.85
2022-09-26T01:15:41.856Z,977.84
2022-09-26T01:16:41.878Z,977.83
2022-09-26T01:17:41.827Z,977.82
2022-09-26T01:18:41.843Z,977.81
2022-09-26T01:19:41.815Z,977.79
2022-09-26T01:20:41.809Z,977.77
2022-09-26T01:21:41.817Z,977.76
2022-09-26T01:22:41.793Z,977.75
2022-09-26T01:23:41.810Z,977.75
2022-09-26T01:24:41.776Z,977.75
2022-09-26T01:25:41.773Z,977.75
2022-09-26T01:26:41.795Z,977.74
2022-09-26T01:27:41.767Z,977.73
2022-09-26T01:28:41.780Z,977.72
2022-09-26T01:29:41.744Z,977.71
2022-09-26T01:30:41.795Z,977.69
2022-09-26T01:31:41.739Z,977.69
2022-09-26T01:32:41.736Z,977.67
2022-09-26T01:33:41.721Z,977.66
2022-09-26T01:34:41.740Z,977.65
2022-09-26T01:35:41.708Z,977.65
2022-09-26T01:36:41.707Z,977.64
2022-09-26T01:37:41.694Z,977.63
2022-09-26T01:38:41.687Z,977.62
2022-09-26T01:39:41.680Z,977.61
2022-09-26T01:40:41.758Z,977.62
2022-09-26T01:41:41.683Z,977.61
2022-09-26T01:42:41.663Z,977.61
2022-09-26T01:43:41.651Z,977.60
2022-09-26T01:44:41.642Z,977.61
2022-09-26T01:45:41.720Z,977.61
2022-09-26T01:46:41.666Z,977.60
2022-09-26T01:47:41.623Z,977.59
2022-09-26T01:48:41.625Z,977.60
2022-09-26T01:49:41.633Z,977.60
2022-09-26T01:50:41.614Z,977.59
2022-09-26T01:51:41.626Z,977.57
2022-09-26T01:52:41.626Z,977.58
2022-09-26T01:53:41.590Z,977.58
2022-09-26T01:54:41.588Z,977.56
2022-09-26T01:55:41.577Z,977.55
2022-09-26T01:56:41.569Z,977.54
2022-09-26T01:57:41.564Z,977.53
2022-09-26T01:58:41.581Z,977.53
2022-09-26T01:59:41.548Z,977.51
2022-09-26T02:00:41.571Z,977.51
2022-09-26T02:01:41.620Z,977.50
2022-09-26T02:02:41.605Z,977.48
2022-09-26T02:03:41.525Z,977.46
2022-09-26T02:04:41.530Z,977.44
2022-09-26T02:05:41.542Z,977.42
2022-09-26T02:06:41.513Z,977.41
2022-09-26T02:07:41.507Z,977.39
2022-09-26T02:08:41.502Z,977.37
2022-09-26T02:09:41.500Z,977.37
2022-09-26T02:10:41.537Z,977.35
2022-09-26T02:11:41.487Z,977.34
2022-09-26T02:12:41.492Z,977.33
2022-09-26T02:13:41.480Z,977.31
2022-09-26T02:14:41.465Z,977.30
2022-09-26T02:15:41.455Z,977.29
2022-09-26T02:16:41.550Z,977.29
2022-09-26T02:17:41.452Z,977.29
2022-09-26T02:18:41.439Z,977.28
2022-09-26T02:19:41.437Z,977.28
2022-09-26T02:20:41.430Z,977.27
2022-09-26T02:21:41.438Z,977.25
2022-09-26T02:22:41.417Z,977.24
2022-09-26T02:23:41.409Z,977.22
2022-09-26T02:24:41.414Z,977.20
2022-09-26T02:25:41.425Z,977.19
2022-09-26T02:26:41.391Z,977.17
2022-09-26T02:27:41.420Z,977.16
2022-09-26T02:28:41.376Z,977.16
2022-09-26T02:29:41.373Z,977.15
2022-09-26T02:30:41.361Z,977.14
2022-09-26T02:31:41.434Z,977.14
2022-09-26T02:32:41.348Z,977.12
2022-09-26T02:33:41.343Z,977.12
2022-09-26T02:34:41.335Z,977.11
2022-09-26T02:35:41.341Z,977.09
2022-09-26T02:36:41.342Z,977.08
2022-09-26T02:37:41.345Z,977.08
2022-09-26T02:38:41.312Z,977.07
2022-09-26T02:39:41.320Z,977.06
2022-09-26T02:40:41.370Z,977.06
2022-09-26T02:41:41.313Z,977.06
2022-09-26T02:42:41.301Z,977.04
2022-09-26T02:43:41.295Z,977.03
2022-09-26T02:44:41.285Z,977.02
2022-09-26T02:45:41.366Z,977.01
2022-09-26T02:46:41.284Z,977.00
2022-09-26T02:47:41.286Z,977.00
2022-09-26T02:48:41.255Z,976.98
2022-09-26T02:49:41.263Z,976.98
2022-09-26T02:50:41.261Z,976.98
2022-09-26T02:51:41.277Z,976.98
2022-09-26T02:52:41.257Z,976.98
2022-09-26T02:53:41.254Z,976.98
2022-09-26T02:54:41.232Z,976.99
2022-09-26T02:55:41.226Z,976.98
2022-09-26T02:56:41.234Z,976.98
2022-09-26T02:57:41.208Z,976.98
2022-09-26T02:58:41.234Z,976.97
2022-09-26T02:59:41.215Z,976.96
2022-09-26T03:00:41.230Z,976.93
2022-09-26T03:01:41.352Z,976.92
2022-09-26T03:02:41.176Z,976.90
2022-09-26T03:03:41.213Z,976.89
2022-09-26T03:04:41.254Z,976.87
2022-09-26T03:05:41.165Z,976.87
2022-09-26T03:06:41.173Z,976.85
2022-09-26T03:07:41.151Z,976.83
2022-09-26T03:08:41.185Z,976.80
2022-09-26T03:09:41.142Z,976.78
2022-09-26T03:10:41.138Z,976.77
2022-09-26T03:11:41.128Z,976.76
2022-09-26T03:12:41.133Z,976.74
2022-09-26T03:13:41.111Z,976.73
2022-09-26T03:14:41.143Z,976.71
2022-09-26T03:15:41.100Z,976.70
2022-09-26T03:16:41.170Z,976.69
2022-09-26T03:17:41.101Z,976.65
2022-09-26T03:18:41.087Z,976.62
2022-09-26T03:19:41.089Z,976.60
2022-09-26T03:20:41.102Z,976.59
2022-09-26T03:21:41.074Z,976.60
2022-09-26T03:22:41.068Z,976.58
2022-09-26T03:23:41.053Z,976.56
2022-09-26T03:24:41.059Z,976.55
2022-09-26T03:25:41.060Z,976.53
2022-09-26T03:26:41.041Z,976.52
2022-09-26T03:27:41.033Z,976.50
2022-09-26T03:28:41.032Z,976.50
2022-09-26T03:29:41.017Z,976.49
2022-09-26T03:30:41.012Z,976.48
2022-09-26T03:31:41.056Z,976.48
2022-09-26T03:32:40.999Z,976.47
2022-09-26T03:33:41.034Z,976.47
2022-09-26T03:34:40.994Z,976.46
2022-09-26T03:35:40.997Z,976.45
2022-09-26T03:36:40.996Z,976.44
2022-09-26T03:37:40.992Z,976.43
2022-09-26T03:38:40.970Z,976.42
2022-09-26T03:39:40.964Z,976.42
2022-09-26T03:40:41.022Z,976.43
2022-09-26T03:41:40.963Z,976.43
2022-09-26T03:42:40.986Z,976.42
2022-09-26T03:43:40.941Z,976.40
2022-09-26T03:44:40.944Z,976.38
2022-09-26T03:45:40.973Z,976.37
2022-09-26T03:46:40.922Z,976.36
2022-09-26T03:47:40.917Z,976.34
2022-09-26T03:48:40.946Z,976.31
2022-09-26T03:49:40.918Z,976.30
2022-09-26T03:50:40.929Z,976.28
2022-09-26T03:51:40.893Z,976.27
2022-09-26T03:52:40.898Z,976.24
2022-09-26T03:53:40.889Z,976.21
2022-09-26T03:54:40.898Z,976.21
2022-09-26T03:55:40.884Z,976.21
2022-09-26T03:56:40.861Z,976.21
2022-09-26T03:57:40.849Z,976.22
2022-09-26T03:58:40.850Z,976.22
2022-09-26T03:59:40.835Z,976.21
2022-09-26T04:00:40.900Z,976.19
2022-09-26T04:01:40.873Z,976.18
2022-09-26T04:02:40.868Z,976.17
2022-09-26T04:03:40.815Z,976.15
2022-09-26T04:04:40.827Z,976.16
2022-09-26T04:05:40.809Z,976.15
2022-09-26T04:06:40.811Z,976.11
2022-09-26T04:07:40.813Z,976.06
2022-09-26T04:08:40.793Z,976.00
2022-09-26T04:09:40.784Z,975.98
2022-09-26T04:10:40.778Z,976.00
2022-09-26T04:11:40.777Z,976.01
2022-09-26T04:12:40.779Z,976.00
2022-09-26T04:13:51.278Z,975.99
2022-09-26T04:14:41.757Z,976.00
2022-09-26T04:15:40.745Z,975.98
2022-09-26T04:16:40.816Z,975.95
2022-09-26T04:17:40.735Z,975.94
2022-09-26T04:18:40.732Z,975.92
2022-09-26T04:19:40.742Z,975.92
2022-09-26T04:20:40.718Z,975.92
2022-09-26T04:21:40.730Z,975.94
2022-09-26T04:22:40.714Z,975.93
2022-09-26T04:23:40.695Z,975.93
2022-09-26T04:24:40.699Z,975.91
2022-09-26T04:25:40.695Z,975.90
2022-09-26T04:26:40.675Z,975.89
2022-09-26T04:27:40.709Z,975.87
2022-09-26T04:28:40.680Z,975.86
2022-09-26T04:29:40.662Z,975.83
2022-09-26T04:30:40.659Z,975.79
2022-09-26T04:31:40.687Z,975.77
2022-09-26T04:32:40.653Z,975.75
2022-09-26T04:33:40.670Z,975.73
2022-09-26T04:34:40.645Z,975.71
2022-09-26T04:35:40.633Z,975.70
2022-09-26T04:36:47.644Z,975.70
2022-09-26T04:37:40.627Z,975.71
2022-09-26T04:38:40.621Z,975.70
2022-09-26T04:39:40.631Z,975.69
2022-09-26T04:40:42.834Z,975.67
2022-09-26T04:41:40.608Z,975.67
2022-09-26T04:42:40.597Z,975.66
2022-09-26T04:43:40.602Z,975.65
2022-09-26T04:44:40.607Z,975.66
2022-09-26T04:45:40.647Z,975.67
2022-09-26T04:46:40.589Z,975.66
2022-09-26T04:47:40.576Z,975.65
2022-09-26T04:48:40.569Z,975.64
2022-09-26T04:49:40.581Z,975.65
2022-09-26T04:50:40.551Z,975.65
2022-09-26T04:51:40.553Z,975.64
2022-09-26T04:52:40.574Z,975.64
2022-09-26T04:53:40.538Z,975.64
2022-09-26T04:54:40.528Z,975.63
2022-09-26T04:55:40.515Z,975.63
2022-09-26T04:56:40.557Z,975.63
2022-09-26T04:57:40.518Z,975.60
2022-09-26T04:58:40.499Z,975.60
2022-09-26T04:59:40.494Z,975.59
2022-09-26T05:00:40.542Z,975.57
2022-09-26T05:01:40.609Z,975.56
2022-09-26T05:02:40.539Z,975.55
2022-09-26T05:03:40.466Z,975.54
2022-09-26T05:04:40.483Z,975.52
2022-09-26T05:05:40.465Z,975.52
2022-09-26T05:06:40.463Z,975.50
2022-09-26T05:07:40.457Z,975.48
2022-09-26T05:08:40.463Z,975.46
2022-09-26T05:09:40.462Z,975.44
2022-09-26T05:10:40.433Z,975.43
2022-09-26T05:11:40.429Z,975.45
2022-09-26T05:12:40.430Z,975.47
2022-09-26T05:13:40.419Z,975.46
2022-09-26T05:14:40.419Z,975.46
2022-09-26T05:15:40.432Z,975.45
2022-09-26T05:16:40.445Z,975.45
2022-09-26T05:17:40.401Z,975.45
2022-09-26T05:18:40.410Z,975.44
2022-09-26T05:19:40.381Z,975.44
2022-09-26T05:20:40.379Z,975.42
2022-09-26T05:21:40.394Z,975.41
2022-09-26T05:22:40.382Z,975.39
2022-09-26T05:23:44.606Z,975.38
2022-09-26T05:24:40.368Z,975.37
2022-09-26T05:25:40.346Z,975.35
2022-09-26T05:26:40.348Z,975.35
2022-09-26T05:27:40.351Z,975.36
2022-09-26T05:28:40.339Z,975.37
2022-09-26T05:29:40.333Z,975.37
2022-09-26T05:30:40.362Z,975.38
2022-09-26T05:31:40.390Z,975.37
2022-09-26T05:32:40.328Z,975.36
2022-09-26T05:33:40.308Z,975.36
2022-09-26T05:34:40.297Z,975.35
2022-09-26T05:35:40.292Z,975.33
2022-09-26T05:36:40.291Z,975.31
2022-09-26T05:37:40.288Z,975.31
2022-09-26T05:38:40.294Z,975.30
2022-09-26T05:39:42.428Z,975.29
2022-09-26T05:40:40.313Z,975.28
2022-09-26T05:41:40.241Z,975.28
2022-09-26T05:42:40.240Z,975.25
2022-09-26T05:43:40.257Z,975.25
2022-09-26T05:44:40.254Z,975.24
2022-09-26T05:45:40.241Z,975.23
2022-09-26T05:46:40.286Z,975.22
2022-09-26T05:47:40.220Z,975.22
2022-09-26T05:48:40.216Z,975.21
2022-09-26T05:49:40.242Z,975.21
2022-09-26T05:50:43.472Z,975.20
2022-09-26T05:51:40.180Z,975.19
2022-09-26T05:52:40.186Z,975.18
2022-09-26T05:53:40.173Z,975.17
2022-09-26T05:54:40.169Z,975.16
2022-09-26T05:55:40.184Z,975.16
2022-09-26T05:56:40.241Z,975.15
2022-09-26T05:57:40.176Z,975.15
2022-09-26T05:58:40.139Z,975.14
2022-09-26T05:59:40.127Z,975.14
2022-09-26T06:00:40.207Z,975.14
2022-09-26T06:01:40.205Z,975.12
2022-09-26T06:02:40.148Z,975.12
2022-09-26T06:03:40.132Z,975.12
2022-09-26T06:04:40.109Z,975.12
2022-09-26T06:05:40.097Z,975.11
2022-09-26T06:06:40.093Z,975.11
2022-09-26T06:07:40.094Z,975.11
2022-09-26T06:08:40.102Z,975.10
2022-09-26T06:09:40.093Z,975.10
2022-09-26T06:10:40.069Z,975.08
2022-09-26T06:11:40.057Z,975.08
2022-09-26T06:12:40.127Z,975.07
2022-09-26T06:13:40.066Z,975.04
2022-09-26T06:14:40.069Z,975.03
2022-09-26T06:15:40.039Z,975.01
2022-09-26T06:16:40.105Z,974.99
2022-09-26T06:17:40.023Z,975.00
2022-09-26T06:18:40.018Z,974.99
2022-09-26T06:19:40.017Z,974.98
2022-09-26T06:20:40.042Z,974.98
2022-09-26T06:21:40.020Z,974.96
2022-09-26T06:22:40.018Z,974.96
2022-09-26T06:23:40.011Z,974.95
2022-09-26T06:24:40.030Z,974.92
2022-09-26T06:25:39.990Z,974.89
2022-09-26T06:26:39.978Z,974.88
2022-09-26T06:27:39.971Z,974.86
2022-09-26T06:28:39.997Z,974.86
2022-09-26T06:29:39.954Z,974.88
2022-09-26T06:30:39.978Z,974.89
2022-09-26T06:31:40.034Z,974.87
2022-09-26T06:32:39.945Z,974.84
2022-09-26T06:33:39.942Z,974.84
2022-09-26T06:34:39.967Z,974.82
2022-09-26T06:35:39.939Z,974.82
2022-09-26T06:36:39.929Z,974.80
2022-09-26T06:37:39.917Z,974.80
2022-09-26T06:38:39.927Z,974.78
2022-09-26T06:39:39.903Z,974.76
2022-09-26T06:40:39.942Z,974.75
2022-09-26T06:41:39.897Z,974.74
2022-09-26T06:42:39.894Z,974.72
2022-09-26T06:43:39.878Z,974.72
2022-09-26T06:44:39.999Z,974.69
2022-09-26T06:45:39.873Z,974.68
2022-09-26T06:46:39.892Z,974.67
2022-09-26T06:47:39.862Z,974.65
2022-09-26T06:48:39.854Z,974.65
2022-09-26T06:49:39.837Z,974.67
2022-09-26T06:50:39.854Z,974.64
2022-09-26T06:51:39.832Z,974.62
2022-09-26T06:52:39.832Z,974.61
2022-09-26T06:53:39.809Z,974.60
2022-09-26T06:54:39.806Z,974.61
2022-09-26T06:55:39.799Z,974.60
2022-09-26T06:56:39.822Z,974.58
2022-09-26T06:57:39.789Z,974.56
2022-09-26T06:58:39.806Z,974.58
2022-09-26T06:59:39.795Z,974.58
2022-09-26T07:00:39.937Z,974.57
2022-09-26T07:01:39.940Z,974.57
2022-09-26T07:02:39.797Z,974.57
2022-09-26T07:03:45.181Z,974.58
2022-09-26T07:04:40.751Z,974.58
2022-09-26T07:05:39.761Z,974.58
2022-09-26T07:06:39.767Z,974.57
2022-09-26T07:07:39.725Z,974.56
2022-09-26T07:09:00.788Z,974.54
2022-09-26T07:09:40.727Z,974.53
2022-09-26T07:10:39.708Z,974.51
2022-09-26T07:11:56.636Z,974.51
2022-09-26T07:12:40.723Z,974.50
2022-09-26T07:13:39.699Z,974.51
2022-09-26T07:14:39.685Z,974.50
2022-09-26T07:15:39.679Z,974.49
2022-09-26T07:16:39.715Z,974.48
2022-09-26T07:17:39.672Z,974.50
2022-09-26T07:18:39.692Z,974.49
2022-09-26T07:19:39.657Z,974.47
2022-09-26T07:20:39.658Z,974.46
2022-09-26T07:21:39.684Z,974.46
2022-09-26T07:22:39.662Z,974.45
2022-09-26T07:23:39.632Z,974.42
2022-09-26T07:24:39.640Z,974.41
2022-09-26T07:25:39.651Z,974.37
2022-09-26T07:26:39.617Z,974.35
2022-09-26T07:27:39.602Z,974.35
2022-09-26T07:28:39.600Z,974.33
2022-09-26T07:29:39.611Z,974.33
2022-09-26T07:30:39.592Z,974.32
2022-09-26T07:31:39.661Z,974.31
2022-09-26T07:32:39.585Z,974.29
2022-09-26T07:33:39.584Z,974.29
2022-09-26T07:34:39.568Z,974.28
2022-09-26T07:35:39.579Z,974.28
2022-09-26T07:36:39.576Z,974.28
2022-09-26T07:37:39.570Z,974.27
2022-09-26T07:38:39.569Z,974.26
2022-09-26T07:39:39.531Z,974.27
2022-09-26T07:40:39.565Z,974.25
2022-09-26T07:41:39.541Z,974.24
2022-09-26T07:42:39.503Z,974.23
2022-09-26T07:45:39.510Z,974.19
2022-09-26T07:46:39.562Z,974.19
2022-09-26T07:47:39.481Z,974.19
2022-09-26T07:48:39.480Z,974.19
2022-09-26T07:49:39.464Z,974.19
2022-09-26T07:50:39.467Z,974.19
2022-09-26T07:51:39.466Z,974.17
2022-09-26T07:52:39.467Z,974.14
2022-09-26T07:53:39.459Z,974.15
2022-09-26T07:54:39.433Z,974.14
2022-09-26T07:55:39.422Z,974.13
2022-09-26T07:56:39.424Z,974.12
2022-09-26T07:57:39.439Z,974.11
2022-09-26T07:58:39.414Z,974.09
2022-09-26T07:59:39.404Z,974.10
2022-09-26T08:00:39.394Z,974.08
2022-09-26T08:01:39.482Z,974.06
2022-09-26T08:02:39.420Z,974.08
2022-09-26T08:03:39.372Z,974.04
2022-09-26T08:04:39.525Z,974.05
2022-09-26T08:05:39.354Z,974.03
2022-09-26T08:06:39.344Z,974.06
2022-09-26T08:07:39.336Z,974.00
2022-09-26T08:08:39.338Z,974.02
2022-09-26T08:09:39.326Z,973.98
2022-09-26T08:10:39.350Z,973.97
2022-09-26T08:11:39.304Z,973.96
2022-09-26T08:12:39.305Z,973.89
2022-09-26T08:13:39.295Z,973.90
2022-09-26T08:14:39.294Z,973.89
2022-09-26T08:15:39.371Z,973.89
2022-09-26T08:16:39.339Z,973.86
2022-09-26T08:17:39.267Z,973.85
2022-09-26T08:18:39.255Z,973.83
2022-09-26T08:19:39.254Z,973.78
2022-09-26T08:20:39.237Z,973.78
2022-09-26T08:21:39.272Z,973.81
2022-09-26T08:22:39.222Z,973.74
2022-09-26T08:23:39.211Z,973.72
2022-09-26T08:24:39.215Z,973.70
2022-09-26T08:25:39.197Z,973.69
2022-09-26T08:26:43.928Z,973.68
2022-09-26T08:27:40.203Z,973.67
2022-09-26T08:28:39.207Z,973.65
2022-09-26T08:29:39.175Z,973.62
2022-09-26T08:30:39.154Z,973.58
2022-09-26T08:31:39.198Z,973.57
2022-09-26T08:32:39.131Z,973.56
2022-09-26T08:33:39.134Z,973.54
2022-09-26T08:34:39.140Z,973.51
2022-09-26T08:35:39.107Z,973.52
2022-09-26T08:36:39.093Z,973.50
2022-09-26T08:37:39.087Z,973.50
2022-09-26T08:38:39.133Z,973.46
2022-09-26T08:39:39.066Z,973.46
2022-09-26T08:40:39.139Z,973.43
2022-09-26T08:41:39.049Z,973.45
2022-09-26T08:42:39.079Z,973.46
2022-09-26T08:43:39.041Z,973.45
2022-09-26T08:44:39.059Z,973.45
2022-09-26T08:45:39.025Z,973.49
2022-09-26T08:46:39.094Z,973.42
2022-09-26T08:47:39.013Z,973.47
2022-09-26T08:48:39.014Z,973.45
2022-09-26T08:49:39.019Z,973.45
2022-09-26T08:50:38.989Z,973.45
2022-09-26T08:51:38.979Z,973.42
2022-09-26T08:52:38.987Z,973.40
2022-09-26T08:53:38.986Z,973.41
2022-09-26T08:54:38.954Z,973.35
2022-09-26T08:55:38.951Z,973.37
2022-09-26T08:56:38.932Z,973.40
2022-09-26T08:57:38.950Z,973.42
2022-09-26T08:58:38.958Z,973.51
2022-09-26T08:59:38.920Z,973.45
2022-09-26T09:00:38.911Z,973.57
2022-09-26T09:01:39.076Z,973.40
2022-09-26T09:02:39.120Z,973.39
2022-09-26T09:03:38.913Z,973.43
2022-09-26T09:04:38.874Z,973.41
2022-09-26T09:05:38.866Z,973.36
2022-09-26T09:06:38.864Z,973.35
2022-09-26T09:07:38.867Z,973.37
2022-09-26T09:08:38.836Z,973.27
2022-09-26T09:09:38.862Z,973.32
2022-09-26T09:10:38.870Z,973.27
2022-09-26T09:11:38.817Z,973.28
2022-09-26T09:12:38.803Z,973.30
2022-09-26T09:13:38.794Z,973.31
2022-09-26T09:14:38.799Z,973.35
2022-09-26T09:15:38.817Z,973.32
2022-09-26T09:16:38.806Z,973.37
2022-09-26T09:17:38.766Z,973.33
2022-09-26T09:18:38.779Z,973.31
2022-09-26T09:19:38.741Z,973.29
2022-09-26T09:20:38.751Z,973.32
2022-09-26T09:21:41.814Z,973.36
2022-09-26T09:22:38.766Z,973.28
2022-09-26T09:23:38.721Z,973.31
2022-09-26T09:24:38.705Z,973.28
2022-09-26T09:25:38.704Z,973.30
2022-09-26T09:27:55.459Z,973.26
2022-09-26T09:28:39.689Z,973.24
2022-09-26T09:29:38.683Z,973.21
2022-09-26T09:30:38.670Z,973.23
2022-09-26T09:31:38.701Z,973.22
2022-09-26T09:32:38.643Z,973.25
2022-09-26T09:33:38.667Z,973.21
2022-09-26T09:34:38.617Z,973.22
2022-09-26T09:35:38.627Z,973.14
2022-09-26T09:36:38.620Z,973.17
2022-09-26T09:37:38.600Z,973.17
2022-09-26T09:38:38.615Z,973.09
2022-09-26T09:39:38.576Z,973.09
2022-09-26T09:40:38.648Z,973.07
2022-09-26T09:41:38.574Z,973.07
2022-09-26T09:42:38.565Z,973.09
2022-09-26T09:43:38.567Z,973.09
2022-09-26T09:44:41.946Z,973.01
2022-09-26T09:45:38.536Z,973.06
2022-09-26T09:46:38.586Z,973.03
2022-09-26T09:47:38.516Z,972.98
2022-09-26T09:48:38.494Z,972.93
2022-09-26T09:49:38.485Z,973.00
2022-09-26T09:50:38.480Z,972.93
2022-09-26T09:51:39.615Z,972.92
2022-09-26T09:52:38.453Z,972.91
2022-09-26T09:53:38.442Z,972.90
2022-09-26T09:54:38.451Z,972.93
2022-09-26T09:55:38.434Z,972.85
2022-09-26T09:56:38.428Z,972.91
2022-09-26T09:57:38.508Z,972.89
2022-09-26T09:58:38.424Z,972.90
2022-09-26T09:59:38.401Z,972.88
2022-09-26T10:00:38.388Z,972.85
2022-09-26T10:01:38.385Z,972.83
2022-09-26T10:02:38.459Z,972.80
2022-09-26T10:03:38.389Z,972.80
2022-09-26T10:04:38.363Z,972.81
2022-09-26T10:05:38.370Z,972.77
2022-09-26T10:06:46.189Z,972.81
2022-09-26T10:07:39.356Z,972.81
2022-09-26T10:08:38.350Z,972.79
2022-09-26T10:09:39.991Z,972.75
2022-09-26T10:10:38.310Z,972.73
2022-09-26T10:11:38.294Z,972.78
2022-09-26T10:12:38.300Z,972.75
2022-09-26T10:13:38.278Z,972.74
2022-09-26T10:14:38.287Z,972.67
2022-09-26T10:15:38.294Z,972.72
2022-09-26T10:16:38.263Z,972.75
2022-09-26T10:17:38.294Z,972.69
2022-09-26T10:18:38.230Z,972.70
2022-09-26T10:19:38.230Z,972.61
2022-09-26T10:20:38.221Z,972.65
2022-09-26T10:21:38.216Z,972.65
2022-09-26T10:22:38.206Z,972.62
2022-09-26T10:23:38.226Z,972.61
2022-09-26T10:24:38.188Z,972.57
2022-09-26T10:25:38.178Z,972.54
2022-09-26T10:26:38.176Z,972.61
2022-09-26T10:27:38.292Z,972.58
2022-09-26T10:28:38.232Z,972.57
2022-09-26T10:29:38.214Z,972.58
2022-09-26T10:30:38.142Z,972.56
2022-09-26T10:31:42.359Z,972.53
2022-09-26T10:32:38.127Z,972.53
2022-09-26T10:33:38.113Z,972.62
2022-09-26T10:34:38.117Z,972.60
2022-09-26T10:35:38.119Z,972.62
2022-09-26T10:36:38.089Z,972.61
2022-09-26T10:37:38.786Z,972.60
2022-09-26T10:38:38.075Z,972.60
2022-09-26T10:39:38.086Z,972.58
2022-09-26T10:40:38.092Z,972.56
2022-09-26T10:41:38.035Z,972.57
2022-09-26T10:42:38.044Z,972.54
2022-09-26T10:43:38.072Z,972.57
2022-09-26T10:44:38.011Z,972.57
2022-09-26T10:45:38.037Z,972.57
2022-09-26T10:46:38.056Z,972.57
2022-09-26T10:47:37.992Z,972.49
2022-09-26T10:48:37.990Z,972.54
2022-09-26T10:49:38.010Z,972.51
2022-09-26T10:50:37.964Z,972.46
2022-09-26T10:51:37.959Z,972.49
2022-09-26T10:52:37.950Z,972.41
2022-09-26T10:53:37.957Z,972.39
2022-09-26T10:54:37.931Z,972.43
2022-09-26T10:55:37.946Z,972.39
2022-09-26T10:56:37.918Z,972.37
2022-09-26T10:57:37.904Z,972.41
2022-09-26T10:58:37.901Z,972.43
2022-09-26T10:59:37.883Z,972.40
2022-09-26T11:00:37.919Z,972.38
2022-09-26T11:01:37.966Z,972.39
2022-09-26T11:02:37.874Z,972.36
2022-09-26T11:03:37.894Z,972.34
2022-09-26T11:04:37.875Z,972.30
2022-09-26T11:05:37.851Z,972.31
2022-09-26T11:06:37.837Z,972.31
2022-09-26T11:07:37.835Z,972.28
2022-09-26T11:08:37.827Z,972.25
2022-09-26T11:09:37.793Z,972.25
2022-09-26T11:10:37.829Z,972.28
2022-09-26T11:11:37.797Z,972.19
2022-09-26T11:12:37.798Z,972.21
2022-09-26T11:13:37.796Z,972.18
2022-09-26T11:14:37.763Z,972.19
2022-09-26T11:15:37.816Z,972.16
2022-09-26T11:16:37.866Z,972.15
2022-09-26T11:17:37.737Z,972.13
2022-09-26T11:18:37.743Z,972.13
2022-09-26T11:19:37.703Z,972.11
2022-09-26T11:20:37.716Z,972.16
2022-09-26T11:21:37.708Z,972.09
2022-09-26T11:22:37.695Z,972.10
2022-09-26T11:23:37.677Z,972.06
2022-09-26T11:24:37.687Z,972.04
2022-09-26T11:25:37.660Z,972.03
2022-09-26T11:26:37.647Z,972.03
2022-09-26T11:27:37.643Z,971.94
2022-09-26T11:28:37.649Z,972.01
2022-09-26T11:29:37.637Z,971.98
2022-09-26T11:30:37.641Z,972.03
2022-09-26T11:31:37.658Z,972.02
2022-09-26T11:32:37.588Z,971.96
2022-09-26T11:33:37.591Z,971.90
2022-09-26T11:34:37.586Z,971.92
2022-09-26T11:35:37.560Z,971.89
2022-09-26T11:36:37.580Z,971.86
2022-09-26T11:37:37.560Z,971.92
2022-09-26T11:38:37.549Z,971.94
2022-09-26T11:39:37.571Z,971.87
2022-09-26T11:40:37.567Z,971.82
2022-09-26T11:41:37.552Z,971.76
2022-09-26T11:42:37.511Z,971.67
2022-09-26T11:43:37.493Z,971.74
2022-09-26T11:44:37.493Z,971.62
2022-09-26T11:45:40.898Z,971.68
2022-09-26T11:46:38.565Z,971.80
2022-09-26T11:47:37.459Z,971.73
2022-09-26T11:48:37.487Z,971.70
2022-09-26T11:49:37.436Z,971.67
2022-09-26T11:50:37.466Z,971.69
2022-09-26T11:51:37.431Z,971.67
2022-09-26T11:52:37.424Z,971.68
2022-09-26T11:53:37.414Z,971.61
2022-09-26T11:54:37.432Z,971.64
2022-09-26T11:55:37.419Z,971.60
2022-09-26T11:56:37.410Z,971.57
2022-09-26T11:57:37.379Z,971.53
2022-09-26T11:58:37.377Z,971.63
2022-09-26T11:59:37.361Z,971.62
2022-09-26T12:00:37.351Z,971.60
2022-09-26T12:01:37.381Z,971.63
2022-09-26T12:02:37.495Z,971.57
2022-09-26T12:03:37.459Z,971.52
2022-09-26T12:04:37.326Z,971.58
2022-09-26T12:05:37.317Z,971.61
2022-09-26T12:06:37.304Z,971.57
2022-09-26T12:07:37.293Z,971.53
2022-09-26T12:08:37.285Z,971.51
2022-09-26T12:09:37.294Z,971.51
2022-09-26T12:10:37.273Z,971.49
2022-09-26T12:11:37.250Z,971.49
2022-09-26T12:12:40.545Z,971.53
2022-09-26T12:13:37.258Z,971.50
2022-09-26T12:14:37.240Z,971.51
2022-09-26T12:15:37.246Z,971.49
2022-09-26T12:16:37.226Z,971.43
2022-09-26T12:17:37.203Z,971.47
2022-09-26T12:18:37.245Z,971.40
2022-09-26T12:19:37.194Z,971.49
2022-09-26T12:20:37.197Z,971.42
2022-09-26T12:21:37.180Z,971.40
2022-09-26T12:22:37.150Z,971.40
2022-09-26T12:23:37.163Z,971.42
2022-09-26T12:24:37.133Z,971.45
2022-09-26T12:25:37.141Z,971.39
2022-09-26T12:26:37.150Z,971.41
2022-09-26T12:27:37.113Z,971.33
2022-09-26T12:28:37.131Z,971.36
2022-09-26T12:29:37.124Z,971.37
2022-09-26T12:30:37.101Z,971.30
2022-09-26T12:31:37.169Z,971.33